Time;durP1;ratioP1;P1;durP2;ratioP2;P2;SDS_P1;SDS_P2;PMS_P1;PMS_P2;Temp;Humidity;BMP_temperature;BMP_pressure;BME280_temperature;BME280_humidity;BME280_pressure;Samples;Min_cycle;Max_cycle;Signal;HPM_P1;HPM_P2
2021/07/18 00:01:40;;;;;;;3.40;3.10;;;;;;;19.14;100.00;102655.21;1971982;73;31522;-73
2021/07/18 00:07:05;;;;;;;4.10;3.13;;;;;;;19.41;100.00;102651.23;1971915;73;33333;-76
2021/07/18 00:12:50;;;;;;;5.43;3.70;;;;;;;19.14;100.00;102654.64;1971677;73;31517;-75
2021/07/18 00:18:38;;;;;;;5.93;3.50;;;;;;;18.96;100.00;102654.84;1971788;72;31531;-74
2021/07/18 00:21:21;;;;;;;4.83;3.33;;;;;;;18.95;100.00;102654.59;1934733;74;24120;-73
2021/07/18 00:27:09;;;;;;;5.63;3.80;;;;;;;18.98;100.00;102648.92;1971621;73;30941;-76
2021/07/18 00:32:56;;;;;;;4.37;3.40;;;;;;;19.09;100.00;102651.88;1971594;73;32960;-75
2021/07/18 00:38:20;;;;;;;3.80;3.30;;;;;;;19.02;100.00;102651.41;1971830;72;30945;-73
2021/07/18 00:43:46;;;;;;;6.67;4.20;;;;;;;18.78;100.00;102651.39;1972044;73;30975;-73
2021/07/18 00:49:11;;;;;;;5.30;4.03;;;;;;;18.71;100.00;102646.66;1971553;73;30997;-76
2021/07/18 00:54:37;;;;;;;4.00;3.60;;;;;;;18.77;100.00;102646.89;1971724;73;30926;-73
2021/07/18 01:00:05;;;;;;;5.13;3.77;;;;;;;18.73;100.00;102646.38;1971888;73;30941;-75
2021/07/18 01:05:30;;;;;;;4.47;3.63;;;;;;;18.55;100.00;102643.72;1971802;73;33325;-76
2021/07/18 01:10:54;;;;;;;5.47;3.70;;;;;;;18.54;100.00;102647.10;1971443;73;30923;-79
2021/07/18 01:16:19;;;;;;;7.20;3.97;;;;;;;18.51;100.00;102640.63;1971992;73;33436;-76
2021/07/18 01:21:44;;;;;;;4.13;3.33;;;;;;;18.41;100.00;102627.20;1971892;73;30930;-76
2021/07/18 01:27:10;;;;;;;4.40;3.97;;;;;;;18.08;100.00;102632.55;1972004;73;31088;-76
2021/07/18 01:32:35;;;;;;;4.73;3.80;;;;;;;17.80;100.00;102637.50;1971754;73;31036;-76
2021/07/18 01:38:20;;;;;;;3.97;3.60;;;;;;;17.69;100.00;102628.31;2016153;71;31346;-75
2021/07/18 01:44:05;;;;;;;4.90;3.73;;;;;;;18.01;100.00;102634.02;2015923;71;30846;-75
2021/07/18 01:49:30;;;;;;;5.73;4.70;;;;;;;18.14;100.00;102634.17;1971808;73;31006;-76
2021/07/18 01:54:56;;;;;;;5.80;3.90;;;;;;;18.28;100.00;102626.47;1971728;73;30940;-76
2021/07/18 02:00:21;;;;;;;6.23;3.93;;;;;;;18.13;100.00;102635.89;1971780;73;31061;-76
2021/07/18 02:05:46;;;;;;;9.00;4.50;;;;;;;17.87;100.00;102635.23;1971966;73;33315;-75
2021/07/18 02:11:11;;;;;;;5.60;4.20;;;;;;;17.63;100.00;102632.83;1972002;73;33340;-75
2021/07/18 02:16:36;;;;;;;4.33;3.93;;;;;;;17.51;100.00;102636.52;1971961;73;30946;-76
2021/07/18 02:22:28;;;;;;;4.50;3.93;;;;;;;17.58;100.00;102629.50;2016097;71;31325;-74
2021/07/18 02:27:52;;;;;;;4.37;3.97;;;;;;;17.67;100.00;102633.95;1971834;72;32898;-76
2021/07/18 02:33:37;;;;;;;4.87;3.70;;;;;;;17.33;100.00;102635.78;2015924;71;32805;-75
2021/07/18 02:39:03;;;;;;;4.23;3.83;;;;;;;17.58;100.00;102628.66;1971965;73;33376;-76
2021/07/18 02:44:28;;;;;;;5.60;4.83;;;;;;;17.77;100.00;102631.06;1971858;73;30928;-76
2021/07/18 02:49:52;;;;;;;7.13;4.43;;;;;;;17.88;100.00;102631.30;1971763;73;33058;-75
2021/07/18 02:55:16;;;;;;;6.07;4.60;;;;;;;17.99;100.00;102633.45;1971820;72;31535;-76
2021/07/18 03:00:41;;;;;;;6.57;4.83;;;;;;;17.76;100.00;102625.16;1971415;73;31029;-76
2021/07/18 03:06:05;;;;;;;5.50;5.00;;;;;;;17.68;100.00;102618.75;1971862;73;31030;-76
2021/07/18 03:11:30;;;;;;;6.53;4.80;;;;;;;17.58;100.00;102623.89;1971639;73;30999;-75
2021/07/18 03:16:54;;;;;;;9.23;5.70;;;;;;;17.48;100.00;102635.14;1971968;73;33486;-75
2021/07/18 03:22:19;;;;;;;6.83;5.27;;;;;;;17.43;100.00;102634.31;1972041;73;33361;-75
2021/07/18 03:27:44;;;;;;;5.43;4.43;;;;;;;17.54;100.00;102641.58;1972067;73;33390;-76
2021/07/18 03:33:10;;;;;;;5.03;3.97;;;;;;;17.10;100.00;102628.84;1971746;73;32996;-75
2021/07/18 03:38:53;;;;;;;6.00;5.40;;;;;;;17.21;100.00;102637.48;2015967;71;33272;-75
2021/07/18 03:44:18;;;;;;;5.30;4.80;;;;;;;17.25;100.00;102632.41;1971747;73;30946;-75
2021/07/18 03:49:42;;;;;;;6.33;5.63;;;;;;;17.32;100.00;102638.30;1971835;73;32994;-75
2021/07/18 03:55:09;;;;;;;7.63;5.93;;;;;;;17.35;100.00;102636.31;1971930;73;31443;-75
2021/07/18 04:00:34;;;;;;;7.40;5.83;;;;;;;17.49;100.00;102635.42;1956400;73;39648;-75
2021/07/18 04:05:58;;;;;;;7.07;5.70;;;;;;;17.35;100.00;102633.51;1971684;73;31023;-75
2021/07/18 04:11:23;;;;;;;7.23;6.07;;;;;;;17.30;100.00;102625.94;1971989;73;31369;-75
2021/07/18 04:16:48;;;;;;;9.53;5.93;;;;;;;17.56;100.00;102632.28;1972012;73;33381;-75
2021/07/18 04:22:12;;;;;;;6.67;5.10;;;;;;;17.33;100.00;102620.33;1971751;73;32936;-76
2021/07/18 04:27:36;;;;;;;7.97;6.17;;;;;;;17.25;100.00;102623.98;1971751;73;32881;-76
2021/07/18 04:33:03;;;;;;;9.93;6.23;;;;;;;17.32;100.00;102625.66;1971886;73;32972;-76
2021/07/18 04:38:27;;;;;;;6.00;5.40;;;;;;;17.20;100.00;102628.22;1971481;73;33155;-77
2021/07/18 04:43:52;;;;;;;6.53;5.43;;;;;;;17.09;100.00;102622.38;1971949;73;32872;-75
2021/07/18 04:49:16;;;;;;;9.10;4.83;;;;;;;17.06;100.00;102626.32;1971953;73;32877;-75
2021/07/18 04:54:41;;;;;;;5.00;3.60;;;;;;;17.07;100.00;102641.45;1971766;73;31043;-76
2021/07/18 05:00:08;;;;;;;3.80;3.40;;;;;;;17.23;100.00;102641.71;1971918;73;33349;-75
2021/07/18 05:05:34;;;;;;;6.90;4.30;;;;;;;17.16;100.00;102639.75;1971555;73;32977;-74
2021/07/18 05:10:59;;;;;;;5.30;4.30;;;;;;;17.23;100.00;102636.66;1971449;73;33461;-76
2021/07/18 05:16:23;;;;;;;6.27;5.63;;;;;;;17.37;100.00;102633.48;1971939;73;33076;-76
2021/07/18 05:21:47;;;;;;;7.90;5.53;;;;;;;17.58;100.00;102642.16;1952405;73;33016;-76
2021/07/18 05:27:11;;;;;;;7.23;6.53;;;;;;;17.69;100.00;102642.36;1971340;73;33324;-74
2021/07/18 05:32:37;;;;;;;8.17;5.83;;;;;;;17.79;100.00;102642.88;1971138;73;32999;-73
2021/07/18 05:38:06;;;;;;;9.43;6.50;;;;;;;17.95;100.00;102646.42;1971022;73;32952;-75
2021/07/18 05:43:30;;;;;;;6.53;5.93;;;;;;;18.08;100.00;102648.58;1971101;73;32892;-76
2021/07/18 05:48:55;;;;;;;9.50;6.50;;;;;;;18.19;100.00;102659.45;1971343;73;31012;-74
2021/07/18 05:54:19;;;;;;;7.40;6.17;;;;;;;18.32;100.00;102653.73;1971205;73;31042;-75
2021/07/18 05:59:43;;;;;;;9.43;6.47;;;;;;;18.39;100.00;102656.22;1971413;73;31428;-75
2021/07/18 06:05:10;;;;;;;7.93;6.20;;;;;;;18.57;100.00;102650.72;1971243;73;30983;-74
2021/07/18 06:10:35;;;;;;;8.07;6.23;;;;;;;18.54;100.00;102651.89;1971305;73;30983;-73
2021/07/18 06:15:59;;;;;;;7.40;5.70;;;;;;;18.68;100.00;102654.86;1971011;72;31351;-77
2021/07/18 06:21:23;;;;;;;8.43;6.00;;;;;;;18.88;100.00;102654.08;1971852;73;30995;-76
2021/07/18 06:26:48;;;;;;;7.60;5.80;;;;;;;19.00;100.00;102657.33;1971913;73;30953;-76
2021/07/18 06:32:13;;;;;;;6.70;5.40;;;;;;;19.05;100.00;102653.05;1971782;73;30903;-76
2021/07/18 06:37:37;;;;;;;7.60;4.90;;;;;;;19.28;100.00;102650.55;1971846;73;31017;-76
2021/07/18 06:43:05;;;;;;;8.67;5.47;;;;;;;19.27;100.00;102644.06;1972048;72;30901;-76
2021/07/18 06:48:30;;;;;;;6.93;5.63;;;;;;;19.49;100.00;102641.56;1971824;73;31014;-76
2021/07/18 06:53:55;;;;;;;7.80;5.30;;;;;;;19.73;100.00;102638.69;1971955;73;31020;-75
2021/07/18 06:59:20;;;;;;;7.73;5.50;;;;;;;19.77;100.00;102629.04;1971915;73;30943;-76
2021/07/18 07:04:45;;;;;;;7.00;5.70;;;;;;;20.03;100.00;102629.50;1971611;73;31025;-74
2021/07/18 07:10:11;;;;;;;6.57;5.30;;;;;;;19.95;100.00;102631.03;1971170;73;31006;-79
2021/07/18 07:15:36;;;;;;;7.13;6.23;;;;;;;20.36;100.00;102637.75;1971995;73;30918;-76
2021/07/18 07:21:00;;;;;;;6.37;5.70;;;;;;;20.55;100.00;102633.45;1971934;73;30924;-76
2021/07/18 07:26:25;;;;;;;6.20;5.03;;;;;;;20.69;100.00;102634.91;1971178;73;30908;-72
2021/07/18 07:31:49;;;;;;;5.60;4.90;;;;;;;20.70;100.00;102636.59;1971534;73;31640;-77
2021/07/18 07:37:14;;;;;;;5.23;4.23;;;;;;;20.91;100.00;102639.30;1971416;73;31036;-75
2021/07/18 07:42:38;;;;;;;7.53;5.27;;;;;;;21.14;100.00;102640.27;1971220;73;30945;-72
2021/07/18 07:48:05;;;;;;;6.00;4.60;;;;;;;21.69;100.00;102640.48;1971833;73;31028;-73
2021/07/18 07:53:30;;;;;;;6.27;4.60;;;;;;;22.06;100.00;102636.56;1971155;73;33534;-77
2021/07/18 07:58:54;;;;;;;8.03;4.90;;;;;;;22.29;100.00;102636.58;1971177;73;32138;-77
2021/07/18 08:04:18;;;;;;;4.62;4.22;;;;;;;22.58;100.00;102642.05;1971945;73;30919;-73
2021/07/18 08:09:43;;;;;;;5.25;4.50;;;;;;;22.76;100.00;102638.77;1971296;73;31088;-76
2021/07/18 08:15:11;;;;;;;5.28;4.17;;;;;;;23.09;100.00;102638.69;1971297;73;31474;-68
2021/07/18 08:20:37;;;;;;;4.10;3.70;;;;;;;23.37;100.00;102626.51;1971083;73;31039;-76
2021/07/18 08:26:02;;;;;;;4.80;4.05;;;;;;;23.88;100.00;102620.13;1971744;73;31424;-73
2021/07/18 08:31:26;;;;;;;6.00;4.53;;;;;;;24.11;100.00;102615.12;1971464;73;31531;-67
2021/07/18 08:36:51;;;;;;;5.25;3.90;;;;;;;23.70;100.00;102626.13;1971410;73;31053;-75
2021/07/18 08:42:16;;;;;;;4.00;3.60;;;;;;;23.54;100.00;102612.98;1971301;73;31493;-70
2021/07/18 08:47:42;;;;;;;4.92;3.75;;;;;;;23.70;100.00;102602.84;1971000;73;30942;-70
2021/07/18 08:53:08;;;;;;;6.17;3.40;;;;;;;24.33;100.00;102593.67;1971293;73;30941;-67
2021/07/18 08:58:35;;;;;;;6.00;3.80;;;;;;;24.02;100.00;102590.99;1971181;73;31087;-75
2021/07/18 09:03:59;;;;;;;5.90;3.58;;;;;;;23.94;100.00;102591.00;1971105;72;30940;-67
2021/07/18 09:09:36;;;;;;;7.35;3.75;;;;;;;24.57;100.00;102583.75;1972097;73;31449;-73
2021/07/18 09:15:04;;;;;;;7.62;3.83;;;;;;;24.47;100.00;102581.51;1971410;73;30999;-74
2021/07/18 09:20:39;;;;;;;7.90;4.03;;;;;;;24.07;100.00;102582.05;1967610;73;30992;-78
2021/07/18 09:26:22;;;;;;;6.00;3.55;;;;;;;24.79;100.00;102572.14;1971395;73;31038;-70
2021/07/18 09:31:55;;;;;;;3.83;3.30;;;;;;;25.11;100.00;102564.43;1971317;73;30946;-73
2021/07/18 09:37:22;;;;;;;3.42;3.12;;;;;;;24.71;100.00;102565.91;1971714;73;31033;-75
2021/07/18 09:42:54;;;;;;;5.47;3.27;;;;;;;25.54;100.00;102557.08;1972057;72;31536;-73
2021/07/18 09:48:51;;;;;;;5.08;3.30;;;;;;;25.32;100.00;102554.52;1971199;72;31063;-78
2021/07/18 09:54:37;;;;;;;4.08;3.60;;;;;;;24.67;100.00;102554.97;1971104;73;30981;-69
2021/07/18 10:00:40;;;;;;;3.77;3.25;;;;;;;25.27;100.00;102549.02;1971581;73;30940;-73
2021/07/18 10:06:13;;;;;;;4.22;3.17;;;;;;;24.94;100.00;102555.98;1970858;73;31098;-75
2021/07/18 10:11:42;;;;;;;6.03;3.35;;;;;;;25.49;100.00;102548.70;1971378;73;31034;-74
2021/07/18 10:17:09;;;;;;;4.08;3.20;;;;;;;25.59;100.00;102551.16;1971105;73;31067;-73
2021/07/18 10:22:34;;;;;;;4.50;3.45;;;;;;;25.55;100.00;102557.30;1971247;71;31097;-75
2021/07/18 10:27:59;;;;;;;4.37;3.35;;;;;;;25.57;100.00;102551.27;1971225;73;30954;-73
2021/07/18 10:33:26;;;;;;;4.20;3.20;;;;;;;25.09;100.00;102549.70;1971213;73;30984;-74
2021/07/18 10:38:58;;;;;;;5.58;3.42;;;;;;;24.96;100.00;102545.09;1971551;73;31419;-70
2021/07/18 10:44:44;;;;;;;7.85;3.52;;;;;;;25.09;100.00;102534.65;1971277;73;30946;-71
2021/07/18 10:50:44;;;;;;;4.72;3.60;;;;;;;25.03;100.00;102536.05;1971799;73;31407;-70
2021/07/18 10:56:20;;;;;;;5.78;4.15;;;;;;;25.59;100.00;102523.28;1971799;73;31448;-72
2021/07/18 11:02:09;;;;;;;4.17;3.77;;;;;;;25.58;100.00;102519.62;1981671;71;31261;-73
2021/07/18 11:08:06;;;;;;;4.12;3.83;;;;;;;25.40;100.00;102515.21;1971306;73;31471;-75
2021/07/18 11:14:43;;;;;;;4.35;3.95;;;;;;;25.10;100.00;102503.03;1971522;73;31381;-75
2021/07/18 11:21:02;;;;;;;4.10;3.70;;;;;;;25.06;100.00;102499.80;2011823;71;31460;-70
2021/07/18 11:26:51;;;;;;;4.55;4.05;;;;;;;25.66;100.00;102487.41;1971188;73;31006;-75
2021/07/18 11:33:06;;;;;;;7.03;6.33;;;;;;;25.90;100.00;102484.41;2015194;71;30953;-73
2021/07/18 11:38:49;;;;;;;8.80;7.90;;;;;;;26.29;100.00;102485.27;1971482;73;31074;-73
2021/07/18 11:44:36;;;;;;;4.28;3.90;;;;;;;26.68;100.00;102480.94;1971640;73;31891;-70
2021/07/18 11:50:20;;;;;;;4.00;3.70;;;;;;;26.09;100.00;102478.44;1971348;73;30982;-70
2021/07/18 11:55:52;;;;;;;5.58;5.00;;;;;;;25.83;100.00;102475.02;1971160;73;30975;-70
2021/07/18 12:01:27;;;;;;;5.70;5.20;;;;;;;25.40;100.00;102473.95;1971500;73;31423;-72
2021/07/18 12:06:57;;;;;;;4.50;4.10;;;;;;;25.13;100.00;102471.63;1971230;73;31042;-72
2021/07/18 12:12:23;;;;;;;4.95;4.53;;;;;;;25.19;100.00;102466.84;1971424;73;30941;-73
2021/07/18 12:17:50;;;;;;;5.10;4.22;;;;;;;26.36;100.00;102452.75;1971223;73;32472;-73
2021/07/18 12:23:37;;;;;;;4.87;4.47;;;;;;;26.48;100.00;102439.95;2015256;71;30975;-74
2021/07/18 12:29:22;;;;;;;6.03;4.87;;;;;;;25.56;100.00;102438.02;2015564;71;31824;-73
2021/07/18 12:34:48;;;;;;;6.47;4.40;;;;;;;26.23;100.00;102435.39;1971266;73;31038;-73
2021/07/18 12:40:14;;;;;;;5.47;4.17;;;;;;;25.55;100.00;102444.05;1971548;73;31533;-72
2021/07/18 12:45:45;;;;;;;5.53;4.97;;;;;;;25.43;100.00;102439.69;1971272;73;31910;-74
2021/07/18 12:51:20;;;;;;;4.95;4.42;;;;;;;26.12;100.00;102432.15;1971074;73;31996;-72
2021/07/18 12:56:56;;;;;;;4.80;4.33;;;;;;;25.46;100.00;102433.33;1971217;73;30985;-73
2021/07/18 13:02:25;;;;;;;4.87;4.40;;;;;;;25.94;100.00;102417.86;1971636;73;31481;-74
2021/07/18 13:07:57;;;;;;;5.28;4.83;;;;;;;27.16;100.00;102403.08;1971701;73;32232;-72
2021/07/18 13:13:24;;;;;;;5.97;4.70;;;;;;;26.52;100.00;102413.00;1971710;73;31521;-73
2021/07/18 13:19:07;;;;;;;5.05;4.62;;;;;;;27.48;100.00;102399.77;1971400;73;31610;-73
2021/07/18 13:24:35;;;;;;;6.42;4.90;;;;;;;26.32;100.00;102413.33;1971300;73;33380;-73
2021/07/18 13:30:10;;;;;;;5.92;4.97;;;;;;;27.22;100.00;102405.89;1971375;73;30935;-74
2021/07/18 13:35:45;;;;;;;4.58;4.17;;;;;;;27.43;100.00;102398.56;1971482;73;31773;-72
2021/07/18 13:41:22;;;;;;;4.72;4.12;;;;;;;27.16;100.00;102393.09;1971293;73;30941;-72
2021/07/18 13:46:45;;;;;;;5.25;4.75;;;;;;;26.15;100.00;102399.27;1970968;73;31442;-75
2021/07/18 13:52:10;;;;;;;5.30;4.80;;;;;;;25.67;100.00;102400.00;1971132;73;31014;-75
2021/07/18 13:57:34;;;;;;;7.78;4.75;;;;;;;25.59;100.00;102391.77;1971204;73;31946;-73
2021/07/18 14:03:17;;;;;;;4.67;4.22;;;;;;;26.07;100.00;102385.96;2015303;71;30944;-73
2021/07/18 14:08:41;;;;;;;5.45;4.92;;;;;;;27.12;100.00;102363.62;1971346;73;31475;-74
2021/07/18 14:14:06;;;;;;;4.55;4.15;;;;;;;27.87;100.00;102370.30;1971147;73;30981;-72
2021/07/18 14:19:34;;;;;;;4.87;4.50;;;;;;;27.73;100.00;102371.92;1971394;73;31447;-72
2021/07/18 14:25:20;;;;;;;4.97;4.58;;;;;;;27.63;100.00;102379.02;1971159;73;31025;-73
2021/07/18 14:31:10;;;;;;;5.25;4.75;;;;;;;26.89;100.00;102377.58;1971057;73;31906;-72
2021/07/18 14:36:44;;;;;;;5.45;4.90;;;;;;;26.31;100.00;102376.07;1971414;73;30929;-71
2021/07/18 14:42:31;;;;;;;8.28;5.25;;;;;;;25.86;100.00;102371.81;1971428;73;31465;-73
2021/07/18 14:48:18;;;;;;;5.60;5.05;;;;;;;26.88;100.00;102355.95;1971665;73;32051;-73
2021/07/18 14:53:42;;;;;;;5.28;4.87;;;;;;;26.84;100.00;102343.56;1971520;73;32050;-73
2021/07/18 14:59:07;;;;;;;5.20;4.72;;;;;;;26.69;100.00;102345.75;1971491;73;32055;-74
2021/07/18 15:04:32;;;;;;;4.75;4.40;;;;;;;27.98;100.00;102342.03;1971236;73;30992;-73
2021/07/18 15:09:56;;;;;;;5.35;4.85;;;;;;;27.64;100.00;102334.97;1937669;74;31192;-73
2021/07/18 15:15:21;;;;;;;5.45;4.60;;;;;;;27.16;100.00;102335.44;1971509;73;31416;-73
2021/07/18 15:20:47;;;;;;;4.65;4.30;;;;;;;27.99;100.00;102323.66;1968466;71;30993;-73
2021/07/18 15:26:11;;;;;;;5.90;5.40;;;;;;;27.30;100.00;102321.35;1955232;73;28520;-72
2021/07/18 15:31:35;;;;;;;5.22;4.55;;;;;;;27.42;100.00;102311.30;1971531;73;31460;-73
2021/07/18 15:37:00;;;;;;;5.53;5.03;;;;;;;27.68;100.00;102305.94;1971292;73;31909;-73
2021/07/18 15:42:24;;;;;;;4.75;4.35;;;;;;;27.77;100.00;102299.42;1971166;73;30937;-74
2021/07/18 15:47:49;;;;;;;6.83;5.25;;;;;;;27.66;100.00;102298.33;1971294;73;30999;-73
2021/07/18 15:53:14;;;;;;;5.03;4.62;;;;;;;27.58;100.00;102287.32;1971390;73;30944;-73
2021/07/18 15:58:39;;;;;;;5.30;4.90;;;;;;;27.44;100.00;102280.34;1971485;73;31576;-73
2021/07/18 16:04:05;;;;;;;5.53;5.03;;;;;;;27.45;100.00;102274.28;1971399;73;31129;-73
2021/07/18 16:09:30;;;;;;;5.42;4.92;;;;;;;27.57;100.00;102265.67;1971204;73;31995;-73
2021/07/18 16:14:55;;;;;;;5.20;4.70;;;;;;;27.70;100.00;102267.84;1971700;73;31898;-73
2021/07/18 16:20:19;;;;;;;5.50;5.05;;;;;;;27.70;100.00;102267.84;1971219;73;31946;-73
2021/07/18 16:25:44;;;;;;;5.55;4.62;;;;;;;27.88;100.00;102261.16;1971421;73;31547;-73
2021/07/18 16:31:09;;;;;;;5.30;4.80;;;;;;;28.12;100.00;102260.97;1971521;73;31537;-74
2021/07/18 16:36:33;;;;;;;5.70;4.80;;;;;;;27.99;100.00;102263.67;1971476;73;31010;-73
2021/07/18 16:41:58;;;;;;;4.97;4.60;;;;;;;27.74;100.00;102262.21;1971388;72;31038;-74
2021/07/18 16:47:23;;;;;;;5.87;5.33;;;;;;;27.62;100.00;102250.29;1971638;73;31507;-73
2021/07/18 16:52:47;;;;;;;5.42;4.92;;;;;;;27.64;100.00;102246.45;1971388;73;31080;-72
2021/07/18 16:58:12;;;;;;;5.22;4.75;;;;;;;27.38;100.00;102245.56;1971730;73;31479;-74
2021/07/18 17:03:56;;;;;;;5.37;4.83;;;;;;;27.13;100.00;102234.86;1934528;70;83542;-76
2021/07/18 17:09:27;;;;;;;5.53;5.08;;;;;;;26.96;100.00;102240.89;1971981;73;30942;-76
2021/07/18 17:14:52;;;;;;;5.17;4.70;;;;;;;26.89;100.00;102228.45;1971635;73;32407;-74
2021/07/18 17:20:17;;;;;;;5.53;5.12;;;;;;;26.90;100.00;102232.38;1972108;73;30998;-76
2021/07/18 17:25:42;;;;;;;4.92;4.53;;;;;;;26.80;100.00;102222.03;1971195;72;31122;-85
2021/07/18 17:31:18;;;;;;;5.35;4.95;;;;;;;26.82;100.00;102221.92;1971994;73;31521;-76
2021/07/18 17:36:56;;;;;;;6.03;5.53;;;;;;;26.72;100.00;102219.58;1971476;72;31008;-75
2021/07/18 17:42:38;;;;;;;5.50;5.00;;;;;;;26.66;100.00;102221.02;1972101;73;32490;-76
2021/07/18 17:48:11;;;;;;;5.42;4.92;;;;;;;26.85;100.00;102206.13;1972432;73;31426;-75
2021/07/18 17:53:40;;;;;;;5.05;4.65;;;;;;;26.99;100.00;102208.80;1971981;73;32575;-76
2021/07/18 17:59:26;;;;;;;5.00;4.60;;;;;;;27.05;100.00;102202.22;2015960;71;32333;-76
2021/07/18 18:04:51;;;;;;;4.90;4.45;;;;;;;27.06;100.00;102198.17;1971967;73;31092;-75
2021/07/18 18:10:17;;;;;;;4.90;4.40;;;;;;;27.05;100.00;102200.20;1971835;73;31007;-75
2021/07/18 18:15:44;;;;;;;5.25;4.75;;;;;;;27.02;100.00;102197.25;1971802;73;31904;-75
2021/07/18 18:21:09;;;;;;;5.17;4.58;;;;;;;26.93;100.00;102195.98;1971879;73;30956;-76
2021/07/18 18:26:35;;;;;;;5.33;4.72;;;;;;;26.92;100.00;102192.89;1971917;73;30938;-75
2021/07/18 18:32:00;;;;;;;5.37;4.87;;;;;;;26.88;100.00;102199.09;1972128;73;31497;-75
2021/07/18 18:37:25;;;;;;;5.50;4.92;;;;;;;26.87;100.00;102184.59;1971906;73;31004;-76
2021/07/18 18:42:51;;;;;;;5.42;4.95;;;;;;;26.85;100.00;102189.02;1972027;73;31906;-75
2021/07/18 18:48:16;;;;;;;6.05;5.45;;;;;;;26.84;100.00;102185.90;1972372;73;31411;-75
2021/07/18 18:54:00;;;;;;;7.42;5.28;;;;;;;26.83;100.00;102192.81;2016090;71;31816;-77
2021/07/18 18:59:25;;;;;;;5.70;5.22;;;;;;;26.84;100.00;102190.17;1972396;73;31466;-76
2021/07/18 19:05:12;;;;;;;5.60;5.10;;;;;;;26.71;100.00;102186.55;2016130;71;31033;-76
2021/07/18 19:10:57;;;;;;;5.67;5.17;;;;;;;26.59;100.00;102186.60;2016397;71;32375;-76
2021/07/18 19:16:29;;;;;;;5.85;5.37;;;;;;;26.45;100.00;102187.59;1972232;73;31416;-75
2021/07/18 19:21:56;;;;;;;5.15;4.75;;;;;;;26.29;100.00;102191.81;1972006;73;32456;-76
2021/07/18 19:27:21;;;;;;;5.25;4.75;;;;;;;26.21;100.00;102182.80;1972182;73;31963;-76
2021/07/18 19:32:53;;;;;;;5.72;5.12;;;;;;;26.23;100.00;102192.64;1971455;73;31389;-76
2021/07/18 19:38:18;;;;;;;5.83;4.78;;;;;;;26.25;100.00;102188.85;1970921;73;32482;-77
2021/07/18 19:43:43;;;;;;;6.25;5.33;;;;;;;25.95;100.00;102200.85;1972065;73;32016;-76
2021/07/18 19:49:08;;;;;;;7.22;5.28;;;;;;;25.80;100.00;102203.84;1972152;73;31025;-75
2021/07/18 19:54:52;;;;;;;5.53;4.90;;;;;;;25.69;100.00;102202.64;2016228;71;31387;-76
2021/07/18 20:00:18;;;;;;;8.05;5.15;;;;;;;25.41;100.00;102203.91;1971989;73;31917;-75
2021/07/18 20:05:43;;;;;;;7.28;5.10;;;;;;;25.10;100.00;102205.84;1971738;73;32007;-75
2021/07/18 20:11:14;;;;;;;6.50;5.47;;;;;;;24.96;100.00;102211.59;1971818;73;31455;-76
2021/07/18 20:16:38;;;;;;;5.53;5.03;;;;;;;24.91;100.00;102218.33;1972171;73;31522;-77
2021/07/18 20:22:03;;;;;;;6.17;5.30;;;;;;;24.91;100.00;102213.48;1971794;73;31010;-76
2021/07/18 20:27:28;;;;;;;7.15;5.45;;;;;;;24.88;100.00;102209.09;1972095;73;31562;-76
2021/07/18 20:33:10;;;;;;;7.05;6.35;;;;;;;24.82;100.00;102217.55;1971814;73;31407;-79
2021/07/18 20:38:34;;;;;;;6.50;5.97;;;;;;;24.61;100.00;102223.84;1971030;73;30941;-73
2021/07/18 20:44:01;;;;;;;7.40;6.53;;;;;;;24.57;100.00;102222.87;1971051;73;31500;-73
2021/07/18 20:49:26;;;;;;;6.90;6.20;;;;;;;24.30;100.00;102221.44;1970771;73;31070;-74
2021/07/18 20:54:51;;;;;;;7.58;6.60;;;;;;;24.20;100.00;102222.67;1970813;73;31017;-75
2021/07/18 21:00:16;;;;;;;6.60;6.00;;;;;;;24.16;100.00;102224.53;1971205;72;31423;-79
2021/07/18 21:05:59;;;;;;;8.38;6.78;;;;;;;24.14;100.00;102222.58;1971790;73;30922;-75
2021/07/18 21:11:59;;;;;;;10.28;6.50;;;;;;;23.97;100.00;102217.02;1970855;73;31537;-73
2021/07/18 21:17:50;;;;;;;8.05;6.67;;;;;;;23.73;100.00;102223.92;1971860;72;30951;-75
2021/07/18 21:23:52;;;;;;;7.45;6.33;;;;;;;23.28;100.00;102222.12;1971588;73;31077;-75
2021/07/18 21:29:49;;;;;;;8.28;7.47;;;;;;;23.37;100.00;102220.94;1971100;73;31444;-72
2021/07/18 21:35:42;;;;;;;8.15;7.15;;;;;;;23.35;100.00;102219.63;1971125;73;31480;-72
2021/07/18 21:41:39;;;;;;;7.92;7.22;;;;;;;23.36;100.00;102219.27;1977451;72;30927;-74
2021/07/18 21:47:36;;;;;;;8.45;6.87;;;;;;;22.92;100.00;102222.56;1971112;73;31456;-75
2021/07/18 21:53:30;;;;;;;8.20;7.00;;;;;;;22.59;100.00;102217.98;1971062;73;30955;-71
2021/07/18 21:59:15;;;;;;;8.18;7.30;;;;;;;22.30;100.00;102227.11;1970987;73;31044;-75
2021/07/18 22:05:13;;;;;;;7.87;7.17;;;;;;;22.28;100.00;102223.80;1983921;72;31403;-77
2021/07/18 22:11:16;;;;;;;7.50;6.80;;;;;;;22.24;100.00;102233.53;2015495;71;31392;-81
2021/07/18 22:17:26;;;;;;;7.15;6.53;;;;;;;22.08;100.00;102232.89;2015417;71;31037;-77
2021/07/18 22:23:12;;;;;;;8.80;7.87;;;;;;;22.20;100.00;102235.94;1971639;73;30991;-76
2021/07/18 22:29:11;;;;;;;8.48;7.30;;;;;;;22.35;100.00;102231.78;1971420;73;30916;-74
2021/07/18 22:35:00;;;;;;;7.95;7.25;;;;;;;22.36;100.00;102233.45;1971379;73;31001;-76
2021/07/18 22:40:50;;;;;;;7.92;7.22;;;;;;;22.35;100.00;102243.11;1970989;72;30992;-77
2021/07/18 22:46:36;;;;;;;8.28;7.58;;;;;;;22.63;100.00;102238.81;1971904;73;31063;-76
2021/07/18 22:52:47;;;;;;;8.60;7.78;;;;;;;22.47;100.00;102231.38;2011783;71;31499;-77
2021/07/18 22:58:41;;;;;;;8.30;7.58;;;;;;;22.42;100.00;102232.95;1971205;73;30940;-77
2021/07/18 23:04:38;;;;;;;8.78;7.95;;;;;;;22.28;100.00;102237.11;1971135;73;30961;-81
2021/07/18 23:10:28;;;;;;;8.68;7.87;;;;;;;21.73;100.00;102241.28;1971174;73;31112;-81
2021/07/18 23:16:35;;;;;;;8.58;7.67;;;;;;;21.43;100.00;102247.80;2015229;71;30921;-80
2021/07/18 23:22:26;;;;;;;9.20;8.30;;;;;;;21.68;100.00;102248.49;1971317;73;31016;-81
2021/07/18 23:28:21;;;;;;;12.88;9.15;;;;;;;21.73;100.00;102246.10;1971228;73;31389;-77
2021/07/18 23:34:04;;;;;;;9.80;8.83;;;;;;;21.78;100.00;102240.27;1971873;73;31033;-76
2021/07/18 23:39:58;;;;;;;10.10;9.03;;;;;;;21.70;100.00;102236.83;1971131;73;31052;-74
2021/07/18 23:45:52;;;;;;;10.43;9.43;;;;;;;21.99;100.00;102227.83;1971956;73;30993;-76
2021/07/18 23:51:51;;;;;;;10.98;9.85;;;;;;;21.95;100.00;102233.89;1955214;73;30951;-76
2021/07/18 23:57:42;;;;;;;10.78;9.70;;;;;;;21.65;100.00;102234.98;1971899;73;30998;-76
